createdAt,value
2022-11-05T00:07:07.966Z,1.92
2022-11-05T00:17:09.731Z,1.80
2022-11-05T00:27:11.552Z,1.33
2022-11-05T00:37:13.341Z,1.35
2022-11-05T00:47:33.510Z,1.83
2022-11-05T00:57:35.267Z,1.48
2022-11-05T01:07:38.213Z,1.95
2022-11-05T01:17:40.106Z,1.88
2022-11-05T01:27:41.939Z,1.70
2022-11-05T01:37:43.931Z,1.77
2022-11-05T01:48:00.456Z,1.73
2022-11-05T01:58:06.293Z,1.88
2022-11-05T02:08:13.328Z,1.58
2022-11-05T02:18:44.342Z,1.70
2022-11-05T02:28:52.049Z,1.30
2022-11-05T02:39:08.145Z,1.20
2022-11-05T02:49:49.041Z,1.17
2022-11-05T03:00:29.378Z,0.85
2022-11-05T03:11:00.961Z,1.33
2022-11-05T03:21:31.739Z,1.35
2022-11-05T03:31:36.110Z,1.45
2022-11-05T03:41:43.208Z,1.27
2022-11-05T03:51:58.008Z,1.05
2022-11-05T04:01:59.801Z,1.13
2022-11-05T04:12:20.556Z,1.38
2022-11-05T04:22:42.828Z,1.00
2022-11-05T04:33:08.151Z,1.15
2022-11-05T04:43:15.353Z,1.15
2022-11-05T04:53:17.302Z,1.17
2022-11-05T05:03:19.113Z,1.20
2022-11-05T05:13:20.842Z,0.82
2022-11-05T05:23:22.591Z,1.20
2022-11-05T05:33:24.339Z,0.50
2022-11-05T05:43:33.787Z,0.80
2022-11-05T05:53:35.897Z,0.68
2022-11-05T06:03:37.717Z,1.00
2022-11-05T06:13:39.492Z,0.80
2022-11-05T06:23:43.194Z,0.70
2022-11-05T06:33:45.002Z,0.55
2022-11-05T06:43:46.759Z,0.38
2022-11-05T06:53:48.522Z,0.70
2022-11-05T07:03:50.326Z,0.50
2022-11-05T07:13:52.064Z,0.40
2022-11-05T07:23:53.882Z,0.50
2022-11-05T07:33:55.633Z,0.30
2022-11-05T07:43:57.469Z,0.50
2022-11-05T07:53:59.320Z,0.35
2022-11-05T08:04:01.075Z,0.20
2022-11-05T08:14:02.844Z,0.40
2022-11-05T08:24:04.813Z,0.20
2022-11-05T08:34:06.570Z,0.22
2022-11-05T08:44:08.745Z,0.30
2022-11-05T08:54:10.637Z,0.40
2022-11-05T09:04:12.535Z,0.30
2022-11-05T09:14:14.309Z,0.47
2022-11-05T09:24:16.133Z,0.20
2022-11-05T09:34:17.889Z,0.20
2022-11-05T09:44:26.799Z,0.17
2022-11-05T09:54:31.669Z,0.28
2022-11-05T10:04:34.258Z,0.20
2022-11-05T10:14:47.086Z,0.30
2022-11-05T10:24:51.131Z,0.40
2022-11-05T10:34:56.103Z,0.30
2022-11-05T10:45:20.892Z,0.22
2022-11-05T10:55:37.477Z,0.45
2022-11-05T11:05:40.557Z,0.30
2022-11-05T11:15:42.314Z,0.38
2022-11-05T11:26:01.383Z,0.40
2022-11-05T11:36:04.587Z,0.30
2022-11-05T11:46:20.957Z,0.40
2022-11-05T11:56:24.151Z,0.20
2022-11-05T12:06:29.715Z,0.30
2022-11-05T12:17:02.828Z,0.43
2022-11-05T12:27:21.498Z,0.30
2022-11-05T12:37:41.429Z,0.30
2022-11-05T12:48:04.886Z,0.20
2022-11-05T12:58:12.769Z,0.32
2022-11-05T13:08:25.741Z,0.50
2022-11-05T13:18:42.550Z,0.55
2022-11-05T13:28:59.325Z,0.25
2022-11-05T13:39:19.328Z,0.30
2022-11-05T13:49:30.251Z,0.40
2022-11-05T13:59:59.694Z,0.55
2022-11-05T14:10:16.575Z,0.57
2022-11-05T14:20:24.362Z,0.50
2022-11-05T14:30:45.899Z,0.35
2022-11-05T14:40:48.491Z,0.45
2022-11-05T14:50:50.733Z,0.40
2022-11-05T15:00:53.447Z,0.50
2022-11-05T15:11:06.572Z,0.50
2022-11-05T15:21:14.126Z,0.52
2022-11-05T15:31:15.983Z,0.40
2022-11-05T15:41:21.502Z,0.43
2022-11-05T15:51:26.106Z,0.50
2022-11-05T16:01:32.225Z,0.52
2022-11-05T16:11:34.044Z,0.40
2022-11-05T16:21:53.460Z,0.52
2022-11-05T16:31:57.002Z,0.40
2022-11-05T16:41:58.898Z,0.60
2022-11-05T16:52:00.752Z,0.30
2022-11-05T17:02:02.646Z,0.50
2022-11-05T17:12:04.708Z,0.30
2022-11-05T17:22:06.457Z,0.50
2022-11-05T17:32:08.338Z,0.40
2022-11-05T17:42:10.137Z,0.30
2022-11-05T17:52:11.971Z,0.50
2022-11-05T18:02:14.277Z,0.40
2022-11-05T18:12:16.110Z,0.50
2022-11-05T18:22:19.459Z,0.32
2022-11-05T18:32:21.291Z,0.30
2022-11-05T18:42:23.357Z,0.43
2022-11-05T18:52:26.512Z,0.40
2022-11-05T19:02:28.457Z,0.40
2022-11-05T19:12:30.351Z,0.40
2022-11-05T19:22:32.230Z,0.35
2022-11-05T19:32:34.048Z,0.40
2022-11-05T19:42:35.910Z,0.30
2022-11-05T19:52:37.672Z,0.40
2022-11-05T20:02:42.677Z,0.60
2022-11-05T20:12:44.695Z,0.40
2022-11-05T20:22:46.587Z,0.50
2022-11-05T20:32:52.595Z,0.50
2022-11-05T20:42:54.428Z,0.60
2022-11-05T20:52:56.239Z,0.40
2022-11-05T21:02:58.085Z,0.30
2022-11-05T21:12:59.960Z,1.27
2022-11-05T21:23:01.725Z,0.50
2022-11-05T21:33:05.201Z,0.60
2022-11-05T21:43:07.655Z,0.50
2022-11-05T21:53:35.079Z,0.50
2022-11-05T22:03:36.876Z,0.60
2022-11-05T22:13:38.630Z,0.70
2022-11-05T22:23:40.392Z,0.57
2022-11-05T22:33:42.741Z,0.60
2022-11-05T22:43:46.049Z,0.70
2022-11-05T22:53:48.543Z,0.50
2022-11-05T23:03:52.794Z,0.70
2022-11-05T23:13:55.713Z,0.40
2022-11-05T23:24:06.403Z,0.50
2022-11-05T23:34:08.179Z,0.55
2022-11-05T23:44:28.551Z,0.40
2022-11-05T23:54:30.285Z,0.47
